sensor_id;sensor_type;location;lat;lon;timestamp;P1;durP1;ratioP1;P2;durP2;ratioP2
26223;SDS011;14820;48.682;8.890;2023-03-31T00:02:08;6.95;;;1.83;;
26223;SDS011;14820;48.682;8.890;2023-03-31T00:04:40;5.75;;;1.90;;
26223;SDS011;14820;48.682;8.890;2023-03-31T00:07:10;9.13;;;2.00;;
26223;SDS011;14820;48.682;8.890;2023-03-31T00:09:37;5.72;;;2.00;;
26223;SDS011;14820;48.682;8.890;2023-03-31T00:12:04;6.38;;;2.00;;
26223;SDS011;14820;48.682;8.890;2023-03-31T00:14:30;10.23;;;1.70;;
26223;SDS011;14820;48.682;8.890;2023-03-31T00:16:56;5.68;;;2.00;;
26223;SDS011;14820;48.682;8.890;2023-03-31T00:19:22;10.43;;;1.95;;
26223;SDS011;14820;48.682;8.890;2023-03-31T00:21:48;6.90;;;2.03;;
26223;SDS011;14820;48.682;8.890;2023-03-31T00:24:15;10.70;;;1.88;;
26223;SDS011;14820;48.682;8.890;2023-03-31T00:26:42;3.38;;;1.60;;
26223;SDS011;14820;48.682;8.890;2023-03-31T00:29:10;7.90;;;1.88;;
26223;SDS011;14820;48.682;8.890;2023-03-31T00:31:37;7.00;;;2.05;;
26223;SDS011;14820;48.682;8.890;2023-03-31T00:34:03;7.57;;;2.05;;
26223;SDS011;14820;48.682;8.890;2023-03-31T00:36:30;6.28;;;1.83;;
26223;SDS011;14820;48.682;8.890;2023-03-31T00:38:57;9.00;;;2.10;;
26223;SDS011;14820;48.682;8.890;2023-03-31T00:41:24;8.95;;;1.98;;
26223;SDS011;14820;48.682;8.890;2023-03-31T00:44:01;6.78;;;1.90;;
26223;SDS011;14820;48.682;8.890;2023-03-31T00:46:39;5.10;;;1.63;;
26223;SDS011;14820;48.682;8.890;2023-03-31T00:49:58;9.60;;;2.00;;
26223;SDS011;14820;48.682;8.890;2023-03-31T00:52:18;6.68;;;1.95;;
26223;SDS011;14820;48.682;8.890;2023-03-31T00:55:07;4.63;;;1.80;;
26223;SDS011;14820;48.682;8.890;2023-03-31T00:57:36;8.10;;;2.10;;
26223;SDS011;14820;48.682;8.890;2023-03-31T01:00:07;6.53;;;2.03;;
26223;SDS011;14820;48.682;8.890;2023-03-31T01:02:52;7.93;;;1.80;;
26223;SDS011;14820;48.682;8.890;2023-03-31T01:06:05;5.80;;;2.08;;
26223;SDS011;14820;48.682;8.890;2023-03-31T01:08:14;9.23;;;2.65;;
26223;SDS011;14820;48.682;8.890;2023-03-31T01:10:42;7.00;;;2.20;;
26223;SDS011;14820;48.682;8.890;2023-03-31T01:13:12;8.70;;;2.30;;
26223;SDS011;14820;48.682;8.890;2023-03-31T01:15:40;11.30;;;5.18;;
26223;SDS011;14820;48.682;8.890;2023-03-31T01:18:07;9.93;;;4.25;;
26223;SDS011;14820;48.682;8.890;2023-03-31T01:43:28;7.35;;;1.90;;
26223;SDS011;14820;48.682;8.890;2023-03-31T01:48:45;10.70;;;1.80;;
26223;SDS011;14820;48.682;8.890;2023-03-31T01:51:18;10.57;;;2.72;;
26223;SDS011;14820;48.682;8.890;2023-03-31T01:54:01;8.18;;;2.38;;
26223;SDS011;14820;48.682;8.890;2023-03-31T01:56:48;6.30;;;1.83;;
26223;SDS011;14820;48.682;8.890;2023-03-31T01:59:33;7.78;;;2.13;;
26223;SDS011;14820;48.682;8.890;2023-03-31T02:02:06;6.10;;;2.03;;
26223;SDS011;14820;48.682;8.890;2023-03-31T02:04:49;7.05;;;2.15;;
26223;SDS011;14820;48.682;8.890;2023-03-31T02:07:26;7.28;;;2.33;;
26223;SDS011;14820;48.682;8.890;2023-03-31T02:10:00;7.30;;;1.98;;
26223;SDS011;14820;48.682;8.890;2023-03-31T02:12:30;9.38;;;1.90;;
26223;SDS011;14820;48.682;8.890;2023-03-31T02:14:58;11.95;;;2.30;;
26223;SDS011;14820;48.682;8.890;2023-03-31T02:17:27;8.82;;;2.47;;
26223;SDS011;14820;48.682;8.890;2023-03-31T02:20:06;4.30;;;2.03;;
26223;SDS011;14820;48.682;8.890;2023-03-31T02:22:40;6.07;;;2.28;;
26223;SDS011;14820;48.682;8.890;2023-03-31T02:25:10;9.60;;;2.58;;
26223;SDS011;14820;48.682;8.890;2023-03-31T02:27:40;9.15;;;2.15;;
26223;SDS011;14820;48.682;8.890;2023-03-31T02:30:10;9.52;;;2.35;;
26223;SDS011;14820;48.682;8.890;2023-03-31T02:32:37;10.25;;;2.65;;
26223;SDS011;14820;48.682;8.890;2023-03-31T02:35:05;5.28;;;1.98;;
26223;SDS011;14820;48.682;8.890;2023-03-31T02:37:34;8.95;;;2.20;;
26223;SDS011;14820;48.682;8.890;2023-03-31T02:40:02;5.50;;;2.45;;
26223;SDS011;14820;48.682;8.890;2023-03-31T02:42:35;8.65;;;2.42;;
26223;SDS011;14820;48.682;8.890;2023-03-31T02:45:05;6.80;;;2.50;;
26223;SDS011;14820;48.682;8.890;2023-03-31T02:47:51;5.80;;;2.25;;
26223;SDS011;14820;48.682;8.890;2023-03-31T02:50:17;8.45;;;2.33;;
26223;SDS011;14820;48.682;8.890;2023-03-31T02:52:50;6.75;;;2.35;;
26223;SDS011;14820;48.682;8.890;2023-03-31T02:55:59;4.72;;;2.00;;
26223;SDS011;14820;48.682;8.890;2023-03-31T02:58:43;4.47;;;1.90;;
26223;SDS011;14820;48.682;8.890;2023-03-31T03:07:36;8.40;;;2.67;;
26223;SDS011;14820;48.682;8.890;2023-03-31T03:10:16;8.23;;;2.70;;
26223;SDS011;14820;48.682;8.890;2023-03-31T03:15:44;7.50;;;2.60;;
26223;SDS011;14820;48.682;8.890;2023-03-31T03:18:13;7.53;;;2.63;;
26223;SDS011;14820;48.682;8.890;2023-03-31T03:20:43;5.65;;;2.60;;
26223;SDS011;14820;48.682;8.890;2023-03-31T03:23:13;10.98;;;2.67;;
26223;SDS011;14820;48.682;8.890;2023-03-31T03:25:39;8.63;;;2.55;;
26223;SDS011;14820;48.682;8.890;2023-03-31T03:28:05;5.00;;;2.25;;
26223;SDS011;14820;48.682;8.890;2023-03-31T03:30:31;9.70;;;2.63;;
26223;SDS011;14820;48.682;8.890;2023-03-31T03:32:57;9.07;;;2.60;;
26223;SDS011;14820;48.682;8.890;2023-03-31T03:35:23;5.97;;;2.72;;
26223;SDS011;14820;48.682;8.890;2023-03-31T03:37:50;11.02;;;2.42;;
26223;SDS011;14820;48.682;8.890;2023-03-31T03:40:15;7.03;;;2.25;;
26223;SDS011;14820;48.682;8.890;2023-03-31T03:42:41;8.90;;;2.80;;
26223;SDS011;14820;48.682;8.890;2023-03-31T03:45:07;8.10;;;2.67;;
26223;SDS011;14820;48.682;8.890;2023-03-31T03:47:33;6.80;;;2.83;;
26223;SDS011;14820;48.682;8.890;2023-03-31T03:50:00;5.47;;;2.60;;
26223;SDS011;14820;48.682;8.890;2023-03-31T03:52:26;7.93;;;2.88;;
26223;SDS011;14820;48.682;8.890;2023-03-31T03:54:52;8.18;;;2.85;;
26223;SDS011;14820;48.682;8.890;2023-03-31T03:57:18;11.30;;;3.30;;
26223;SDS011;14820;48.682;8.890;2023-03-31T03:59:44;13.85;;;2.70;;
26223;SDS011;14820;48.682;8.890;2023-03-31T04:02:09;9.45;;;3.45;;
26223;SDS011;14820;48.682;8.890;2023-03-31T04:04:35;9.73;;;3.03;;
26223;SDS011;14820;48.682;8.890;2023-03-31T04:07:01;7.38;;;3.25;;
26223;SDS011;14820;48.682;8.890;2023-03-31T04:09:26;6.68;;;3.03;;
26223;SDS011;14820;48.682;8.890;2023-03-31T04:11:52;9.73;;;2.67;;
26223;SDS011;14820;48.682;8.890;2023-03-31T04:14:18;6.25;;;2.83;;
26223;SDS011;14820;48.682;8.890;2023-03-31T04:16:44;9.52;;;3.00;;
26223;SDS011;14820;48.682;8.890;2023-03-31T04:19:11;12.43;;;3.22;;
26223;SDS011;14820;48.682;8.890;2023-03-31T04:21:41;10.93;;;3.25;;
26223;SDS011;14820;48.682;8.890;2023-03-31T04:24:10;8.05;;;3.30;;
26223;SDS011;14820;48.682;8.890;2023-03-31T04:26:40;12.20;;;3.28;;
26223;SDS011;14820;48.682;8.890;2023-03-31T04:29:13;12.48;;;3.85;;
26223;SDS011;14820;48.682;8.890;2023-03-31T04:31:40;14.57;;;4.00;;
26223;SDS011;14820;48.682;8.890;2023-03-31T04:34:07;8.55;;;3.58;;
26223;SDS011;14820;48.682;8.890;2023-03-31T04:36:37;9.30;;;3.40;;
26223;SDS011;14820;48.682;8.890;2023-03-31T04:39:06;13.90;;;3.78;;
26223;SDS011;14820;48.682;8.890;2023-03-31T04:41:34;10.48;;;4.05;;
26223;SDS011;14820;48.682;8.890;2023-03-31T04:44:00;8.82;;;4.30;;
26223;SDS011;14820;48.682;8.890;2023-03-31T04:46:26;12.07;;;3.70;;
26223;SDS011;14820;48.682;8.890;2023-03-31T04:48:52;10.77;;;4.03;;
26223;SDS011;14820;48.682;8.890;2023-03-31T04:51:18;12.40;;;3.53;;
26223;SDS011;14820;48.682;8.890;2023-03-31T04:53:44;16.10;;;3.72;;
26223;SDS011;14820;48.682;8.890;2023-03-31T04:56:10;11.27;;;3.65;;
26223;SDS011;14820;48.682;8.890;2023-03-31T04:58:37;10.73;;;3.63;;
26223;SDS011;14820;48.682;8.890;2023-03-31T05:01:02;10.27;;;3.28;;
26223;SDS011;14820;48.682;8.890;2023-03-31T05:03:30;12.95;;;3.92;;
26223;SDS011;14820;48.682;8.890;2023-03-31T05:05:56;8.32;;;3.75;;
26223;SDS011;14820;48.682;8.890;2023-03-31T05:08:22;10.35;;;3.95;;
26223;SDS011;14820;48.682;8.890;2023-03-31T05:10:47;6.90;;;3.47;;
26223;SDS011;14820;48.682;8.890;2023-03-31T05:13:13;8.00;;;3.80;;
26223;SDS011;14820;48.682;8.890;2023-03-31T05:15:39;10.63;;;4.30;;
26223;SDS011;14820;48.682;8.890;2023-03-31T05:18:05;11.23;;;4.50;;
26223;SDS011;14820;48.682;8.890;2023-03-31T05:20:31;12.68;;;5.25;;
26223;SDS011;14820;48.682;8.890;2023-03-31T05:22:58;13.77;;;5.38;;
26223;SDS011;14820;48.682;8.890;2023-03-31T05:25:24;13.25;;;4.88;;
26223;SDS011;14820;48.682;8.890;2023-03-31T05:27:50;13.07;;;4.15;;
26223;SDS011;14820;48.682;8.890;2023-03-31T05:30:16;12.95;;;4.70;;
26223;SDS011;14820;48.682;8.890;2023-03-31T05:32:42;13.38;;;4.30;;
26223;SDS011;14820;48.682;8.890;2023-03-31T05:35:08;14.35;;;4.30;;
26223;SDS011;14820;48.682;8.890;2023-03-31T05:37:35;10.60;;;4.30;;
26223;SDS011;14820;48.682;8.890;2023-03-31T05:40:01;9.63;;;4.63;;
26223;SDS011;14820;48.682;8.890;2023-03-31T05:42:29;10.77;;;4.15;;
26223;SDS011;14820;48.682;8.890;2023-03-31T05:44:54;12.55;;;4.15;;
26223;SDS011;14820;48.682;8.890;2023-03-31T05:47:21;10.75;;;4.32;;
26223;SDS011;14820;48.682;8.890;2023-03-31T05:49:47;9.30;;;3.80;;
26223;SDS011;14820;48.682;8.890;2023-03-31T05:52:13;13.30;;;4.45;;
26223;SDS011;14820;48.682;8.890;2023-03-31T05:54:39;12.57;;;4.88;;
26223;SDS011;14820;48.682;8.890;2023-03-31T05:57:06;8.60;;;4.22;;
26223;SDS011;14820;48.682;8.890;2023-03-31T05:59:31;14.60;;;4.80;;
26223;SDS011;14820;48.682;8.890;2023-03-31T06:01:59;10.25;;;4.68;;
26223;SDS011;14820;48.682;8.890;2023-03-31T06:04:25;13.52;;;4.53;;
26223;SDS011;14820;48.682;8.890;2023-03-31T06:06:51;13.32;;;4.30;;
26223;SDS011;14820;48.682;8.890;2023-03-31T06:09:18;9.15;;;4.50;;
26223;SDS011;14820;48.682;8.890;2023-03-31T06:11:44;12.80;;;4.80;;
26223;SDS011;14820;48.682;8.890;2023-03-31T06:14:10;9.75;;;4.95;;
26223;SDS011;14820;48.682;8.890;2023-03-31T06:16:36;15.48;;;4.88;;
26223;SDS011;14820;48.682;8.890;2023-03-31T06:19:02;12.18;;;4.93;;
26223;SDS011;14820;48.682;8.890;2023-03-31T06:21:28;13.50;;;5.18;;
26223;SDS011;14820;48.682;8.890;2023-03-31T06:23:53;10.05;;;4.93;;
26223;SDS011;14820;48.682;8.890;2023-03-31T06:26:22;8.63;;;5.05;;
26223;SDS011;14820;48.682;8.890;2023-03-31T06:28:48;18.38;;;6.30;;
26223;SDS011;14820;48.682;8.890;2023-03-31T06:31:18;13.98;;;4.82;;
26223;SDS011;14820;48.682;8.890;2023-03-31T06:33:46;12.05;;;5.00;;
26223;SDS011;14820;48.682;8.890;2023-03-31T06:36:13;10.27;;;4.47;;
26223;SDS011;14820;48.682;8.890;2023-03-31T06:38:41;13.30;;;5.38;;
26223;SDS011;14820;48.682;8.890;2023-03-31T06:41:07;11.95;;;4.90;;
26223;SDS011;14820;48.682;8.890;2023-03-31T06:43:35;12.43;;;5.63;;
26223;SDS011;14820;48.682;8.890;2023-03-31T06:46:01;14.73;;;5.72;;
26223;SDS011;14820;48.682;8.890;2023-03-31T06:48:30;14.07;;;5.32;;
26223;SDS011;14820;48.682;8.890;2023-03-31T06:50:58;10.80;;;4.95;;
26223;SDS011;14820;48.682;8.890;2023-03-31T06:53:28;11.77;;;4.97;;
26223;SDS011;14820;48.682;8.890;2023-03-31T06:55:57;15.25;;;5.43;;
26223;SDS011;14820;48.682;8.890;2023-03-31T06:58:26;8.18;;;4.57;;
26223;SDS011;14820;48.682;8.890;2023-03-31T07:00:51;9.52;;;3.42;;
26223;SDS011;14820;48.682;8.890;2023-03-31T07:03:19;7.15;;;3.20;;
26223;SDS011;14820;48.682;8.890;2023-03-31T07:05:52;6.60;;;3.20;;
26223;SDS011;14820;48.682;8.890;2023-03-31T07:08:39;4.50;;;2.25;;
26223;SDS011;14820;48.682;8.890;2023-03-31T07:11:05;4.85;;;2.53;;
26223;SDS011;14820;48.682;8.890;2023-03-31T07:13:30;3.97;;;2.47;;
26223;SDS011;14820;48.682;8.890;2023-03-31T07:15:56;6.93;;;2.60;;
26223;SDS011;14820;48.682;8.890;2023-03-31T07:18:22;3.30;;;2.08;;
26223;SDS011;14820;48.682;8.890;2023-03-31T07:20:56;4.07;;;1.60;;
26223;SDS011;14820;48.682;8.890;2023-03-31T07:23:25;4.22;;;1.98;;
26223;SDS011;14820;48.682;8.890;2023-03-31T07:25:55;5.63;;;1.95;;
26223;SDS011;14820;48.682;8.890;2023-03-31T07:28:25;6.55;;;1.85;;
26223;SDS011;14820;48.682;8.890;2023-03-31T07:30:51;6.82;;;1.70;;
26223;SDS011;14820;48.682;8.890;2023-03-31T07:33:20;2.75;;;1.50;;
26223;SDS011;14820;48.682;8.890;2023-03-31T07:35:48;4.45;;;1.48;;
26223;SDS011;14820;48.682;8.890;2023-03-31T07:38:14;1.55;;;1.02;;
26223;SDS011;14820;48.682;8.890;2023-03-31T07:40:43;3.38;;;1.25;;
26223;SDS011;14820;48.682;8.890;2023-03-31T07:43:12;4.18;;;1.15;;
26223;SDS011;14820;48.682;8.890;2023-03-31T07:45:45;3.88;;;1.10;;
26223;SDS011;14820;48.682;8.890;2023-03-31T07:48:12;2.05;;;1.13;;
26223;SDS011;14820;48.682;8.890;2023-03-31T07:50:41;2.63;;;1.10;;
26223;SDS011;14820;48.682;8.890;2023-03-31T07:53:09;2.20;;;0.95;;
26223;SDS011;14820;48.682;8.890;2023-03-31T07:55:36;2.88;;;1.15;;
26223;SDS011;14820;48.682;8.890;2023-03-31T07:58:04;2.42;;;1.10;;
26223;SDS011;14820;48.682;8.890;2023-03-31T08:00:35;1.73;;;0.93;;
26223;SDS011;14820;48.682;8.890;2023-03-31T08:03:04;4.22;;;1.63;;
26223;SDS011;14820;48.682;8.890;2023-03-31T08:05:33;2.30;;;1.45;;
26223;SDS011;14820;48.682;8.890;2023-03-31T08:07:59;2.40;;;1.20;;
26223;SDS011;14820;48.682;8.890;2023-03-31T08:10:25;4.35;;;1.20;;
26223;SDS011;14820;48.682;8.890;2023-03-31T08:12:51;4.53;;;1.20;;
26223;SDS011;14820;48.682;8.890;2023-03-31T08:15:17;2.50;;;1.33;;
26223;SDS011;14820;48.682;8.890;2023-03-31T08:17:43;4.32;;;1.20;;
26223;SDS011;14820;48.682;8.890;2023-03-31T08:20:09;2.53;;;1.30;;
26223;SDS011;14820;48.682;8.890;2023-03-31T08:22:36;2.95;;;1.23;;
26223;SDS011;14820;48.682;8.890;2023-03-31T08:25:03;3.90;;;1.10;;
26223;SDS011;14820;48.682;8.890;2023-03-31T08:27:33;6.35;;;1.67;;
26223;SDS011;14820;48.682;8.890;2023-03-31T08:30:00;5.28;;;1.30;;
26223;SDS011;14820;48.682;8.890;2023-03-31T08:32:29;3.72;;;1.60;;
26223;SDS011;14820;48.682;8.890;2023-03-31T08:34:56;4.05;;;1.38;;
26223;SDS011;14820;48.682;8.890;2023-03-31T08:37:21;3.70;;;1.30;;
26223;SDS011;14820;48.682;8.890;2023-03-31T08:39:48;4.32;;;1.52;;
26223;SDS011;14820;48.682;8.890;2023-03-31T08:42:14;4.78;;;1.15;;
26223;SDS011;14820;48.682;8.890;2023-03-31T08:44:51;5.35;;;1.63;;
26223;SDS011;14820;48.682;8.890;2023-03-31T08:47:21;8.70;;;1.70;;
26223;SDS011;14820;48.682;8.890;2023-03-31T08:49:49;6.95;;;1.42;;
26223;SDS011;14820;48.682;8.890;2023-03-31T08:52:20;4.38;;;1.45;;
26223;SDS011;14820;48.682;8.890;2023-03-31T08:54:51;7.38;;;1.52;;
26223;SDS011;14820;48.682;8.890;2023-03-31T09:00:25;4.43;;;1.40;;
26223;SDS011;14820;48.682;8.890;2023-03-31T09:03:03;3.85;;;1.40;;
26223;SDS011;14820;48.682;8.890;2023-03-31T09:10:42;4.72;;;1.08;;
26223;SDS011;14820;48.682;8.890;2023-03-31T09:16:46;3.75;;;1.33;;
26223;SDS011;14820;48.682;8.890;2023-03-31T09:19:29;4.88;;;1.30;;
26223;SDS011;14820;48.682;8.890;2023-03-31T09:22:00;6.18;;;1.42;;
26223;SDS011;14820;48.682;8.890;2023-03-31T09:24:33;2.58;;;1.23;;
26223;SDS011;14820;48.682;8.890;2023-03-31T09:27:16;4.13;;;1.20;;
26223;SDS011;14820;48.682;8.890;2023-03-31T09:30:01;4.88;;;1.10;;
26223;SDS011;14820;48.682;8.890;2023-03-31T09:34:59;5.25;;;1.27;;
26223;SDS011;14820;48.682;8.890;2023-03-31T09:37:36;2.72;;;1.05;;
26223;SDS011;14820;48.682;8.890;2023-03-31T09:40:03;6.85;;;1.35;;
26223;SDS011;14820;48.682;8.890;2023-03-31T09:42:32;3.13;;;1.20;;
26223;SDS011;14820;48.682;8.890;2023-03-31T09:44:59;8.73;;;1.42;;
26223;SDS011;14820;48.682;8.890;2023-03-31T09:47:36;4.45;;;1.20;;
26223;SDS011;14820;48.682;8.890;2023-03-31T09:50:08;7.10;;;1.30;;
26223;SDS011;14820;48.682;8.890;2023-03-31T09:52:57;3.42;;;1.17;;
26223;SDS011;14820;48.682;8.890;2023-03-31T09:58:12;5.05;;;1.40;;
26223;SDS011;14820;48.682;8.890;2023-03-31T10:00:41;6.88;;;1.70;;
26223;SDS011;14820;48.682;8.890;2023-03-31T10:03:20;9.45;;;1.55;;
26223;SDS011;14820;48.682;8.890;2023-03-31T10:05:51;4.30;;;1.45;;
26223;SDS011;14820;48.682;8.890;2023-03-31T10:08:21;8.40;;;1.60;;
26223;SDS011;14820;48.682;8.890;2023-03-31T10:10:53;10.48;;;1.98;;
26223;SDS011;14820;48.682;8.890;2023-03-31T10:13:34;6.07;;;1.40;;
26223;SDS011;14820;48.682;8.890;2023-03-31T10:16:11;8.75;;;1.60;;
26223;SDS011;14820;48.682;8.890;2023-03-31T10:18:51;7.47;;;2.00;;
26223;SDS011;14820;48.682;8.890;2023-03-31T10:21:24;6.53;;;1.60;;
26223;SDS011;14820;48.682;8.890;2023-03-31T10:23:51;12.65;;;2.38;;
26223;SDS011;14820;48.682;8.890;2023-03-31T10:26:23;8.57;;;1.50;;
26223;SDS011;14820;48.682;8.890;2023-03-31T10:28:53;6.38;;;1.52;;
26223;SDS011;14820;48.682;8.890;2023-03-31T10:31:23;10.38;;;2.28;;
26223;SDS011;14820;48.682;8.890;2023-03-31T10:33:50;6.70;;;1.60;;
26223;SDS011;14820;48.682;8.890;2023-03-31T10:36:27;8.73;;;1.88;;
26223;SDS011;14820;48.682;8.890;2023-03-31T10:38:54;7.30;;;1.80;;
26223;SDS011;14820;48.682;8.890;2023-03-31T10:41:21;8.05;;;1.95;;
26223;SDS011;14820;48.682;8.890;2023-03-31T10:43:50;6.03;;;1.58;;
26223;SDS011;14820;48.682;8.890;2023-03-31T10:46:18;8.70;;;1.77;;
26223;SDS011;14820;48.682;8.890;2023-03-31T10:48:44;7.43;;;1.80;;
26223;SDS011;14820;48.682;8.890;2023-03-31T10:51:20;12.68;;;2.20;;
26223;SDS011;14820;48.682;8.890;2023-03-31T10:53:53;8.25;;;1.98;;
26223;SDS011;14820;48.682;8.890;2023-03-31T11:02:28;6.35;;;1.50;;
26223;SDS011;14820;48.682;8.890;2023-03-31T11:05:31;6.35;;;1.75;;
26223;SDS011;14820;48.682;8.890;2023-03-31T11:22:18;2.38;;;1.17;;
26223;SDS011;14820;48.682;8.890;2023-03-31T11:30:28;1.73;;;0.50;;
26223;SDS011;14820;48.682;8.890;2023-03-31T11:42:03;3.00;;;0.60;;
26223;SDS011;14820;48.682;8.890;2023-03-31T11:44:40;1.45;;;0.80;;
26223;SDS011;14820;48.682;8.890;2023-03-31T11:47:12;1.35;;;0.70;;
26223;SDS011;14820;48.682;8.890;2023-03-31T11:49:49;1.27;;;0.68;;
26223;SDS011;14820;48.682;8.890;2023-03-31T11:52:29;0.82;;;0.50;;
26223;SDS011;14820;48.682;8.890;2023-03-31T11:55:03;1.15;;;0.60;;
26223;SDS011;14820;48.682;8.890;2023-03-31T12:00:55;0.80;;;0.52;;
26223;SDS011;14820;48.682;8.890;2023-03-31T12:06:29;0.88;;;0.68;;
26223;SDS011;14820;48.682;8.890;2023-03-31T12:09:35;2.00;;;0.70;;
26223;SDS011;14820;48.682;8.890;2023-03-31T12:12:14;2.63;;;0.82;;
26223;SDS011;14820;48.682;8.890;2023-03-31T12:14:47;0.93;;;0.60;;
26223;SDS011;14820;48.682;8.890;2023-03-31T12:17:27;2.55;;;0.70;;
26223;SDS011;14820;48.682;8.890;2023-03-31T12:24:53;2.80;;;0.68;;
26223;SDS011;14820;48.682;8.890;2023-03-31T12:27:21;1.95;;;0.50;;
26223;SDS011;14820;48.682;8.890;2023-03-31T12:32:39;0.90;;;0.43;;
26223;SDS011;14820;48.682;8.890;2023-03-31T12:46:51;3.78;;;1.00;;
26223;SDS011;14820;48.682;8.890;2023-03-31T12:49:33;4.05;;;0.82;;
26223;SDS011;14820;48.682;8.890;2023-03-31T13:01:17;6.90;;;1.30;;
26223;SDS011;14820;48.682;8.890;2023-03-31T13:06:50;5.72;;;1.33;;
26223;SDS011;14820;48.682;8.890;2023-03-31T13:12:07;13.63;;;2.00;;
26223;SDS011;14820;48.682;8.890;2023-03-31T13:14:57;6.43;;;1.52;;
26223;SDS011;14820;48.682;8.890;2023-03-31T13:17:34;5.78;;;1.42;;
26223;SDS011;14820;48.682;8.890;2023-03-31T13:23:04;2.88;;;0.75;;
26223;SDS011;14820;48.682;8.890;2023-03-31T13:25:35;3.53;;;0.80;;
26223;SDS011;14820;48.682;8.890;2023-03-31T13:33:06;0.60;;;0.40;;
26223;SDS011;14820;48.682;8.890;2023-03-31T13:35:34;1.10;;;0.50;;
26223;SDS011;14820;48.682;8.890;2023-03-31T13:43:58;0.60;;;0.60;;
26223;SDS011;14820;48.682;8.890;2023-03-31T13:46:50;2.17;;;0.60;;
26223;SDS011;14820;48.682;8.890;2023-03-31T13:58:30;1.23;;;0.60;;
26223;SDS011;14820;48.682;8.890;2023-03-31T14:07:14;1.23;;;0.80;;
26223;SDS011;14820;48.682;8.890;2023-03-31T14:09:47;2.75;;;0.75;;
26223;SDS011;14820;48.682;8.890;2023-03-31T14:12:22;1.35;;;0.60;;
26223;SDS011;14820;48.682;8.890;2023-03-31T14:14:54;1.27;;;0.73;;
26223;SDS011;14820;48.682;8.890;2023-03-31T14:17:21;1.60;;;0.80;;
26223;SDS011;14820;48.682;8.890;2023-03-31T14:28:21;2.13;;;1.02;;
26223;SDS011;14820;48.682;8.890;2023-03-31T14:34:04;2.88;;;0.80;;
26223;SDS011;14820;48.682;8.890;2023-03-31T14:39:26;2.20;;;0.93;;
26223;SDS011;14820;48.682;8.890;2023-03-31T14:42:05;2.53;;;0.93;;
26223;SDS011;14820;48.682;8.890;2023-03-31T14:44:37;1.85;;;0.80;;
26223;SDS011;14820;48.682;8.890;2023-03-31T14:47:04;3.63;;;1.00;;
26223;SDS011;14820;48.682;8.890;2023-03-31T14:49:38;2.50;;;0.93;;
26223;SDS011;14820;48.682;8.890;2023-03-31T14:52:11;4.25;;;0.95;;
26223;SDS011;14820;48.682;8.890;2023-03-31T14:54:42;3.45;;;1.00;;
26223;SDS011;14820;48.682;8.890;2023-03-31T14:57:33;3.65;;;1.98;;
26223;SDS011;14820;48.682;8.890;2023-03-31T15:00:00;2.20;;;1.00;;
26223;SDS011;14820;48.682;8.890;2023-03-31T15:02:41;2.47;;;0.90;;
26223;SDS011;14820;48.682;8.890;2023-03-31T15:05:42;2.00;;;0.82;;
26223;SDS011;14820;48.682;8.890;2023-03-31T15:08:20;2.92;;;1.02;;
26223;SDS011;14820;48.682;8.890;2023-03-31T15:10:48;3.40;;;0.80;;
26223;SDS011;14820;48.682;8.890;2023-03-31T15:15:55;2.72;;;0.90;;
26223;SDS011;14820;48.682;8.890;2023-03-31T15:18:20;3.83;;;1.30;;
26223;SDS011;14820;48.682;8.890;2023-03-31T15:20:49;4.03;;;1.20;;
26223;SDS011;14820;48.682;8.890;2023-03-31T15:23:20;2.17;;;0.82;;
26223;SDS011;14820;48.682;8.890;2023-03-31T15:26:03;2.63;;;1.08;;
26223;SDS011;14820;48.682;8.890;2023-03-31T15:28:36;1.80;;;0.80;;
26223;SDS011;14820;48.682;8.890;2023-03-31T15:31:08;3.70;;;1.02;;
26223;SDS011;14820;48.682;8.890;2023-03-31T15:33:36;3.63;;;0.90;;
26223;SDS011;14820;48.682;8.890;2023-03-31T15:36:06;4.00;;;0.90;;
26223;SDS011;14820;48.682;8.890;2023-03-31T15:38:38;2.20;;;0.80;;
26223;SDS011;14820;48.682;8.890;2023-03-31T15:41:11;4.20;;;1.10;;
26223;SDS011;14820;48.682;8.890;2023-03-31T15:43:47;3.92;;;1.02;;
26223;SDS011;14820;48.682;8.890;2023-03-31T15:46:24;1.40;;;0.60;;
26223;SDS011;14820;48.682;8.890;2023-03-31T15:49:20;3.50;;;1.00;;
26223;SDS011;14820;48.682;8.890;2023-03-31T15:51:50;6.85;;;1.50;;
26223;SDS011;14820;48.682;8.890;2023-03-31T15:55:20;4.18;;;1.00;;
26223;SDS011;14820;48.682;8.890;2023-03-31T15:57:06;3.28;;;0.93;;
26223;SDS011;14820;48.682;8.890;2023-03-31T15:59:44;3.78;;;0.88;;
26223;SDS011;14820;48.682;8.890;2023-03-31T16:02:15;3.45;;;1.00;;
26223;SDS011;14820;48.682;8.890;2023-03-31T16:04:46;4.95;;;1.15;;
26223;SDS011;14820;48.682;8.890;2023-03-31T16:07:15;3.75;;;1.17;;
26223;SDS011;14820;48.682;8.890;2023-03-31T16:12:41;6.35;;;1.60;;
26223;SDS011;14820;48.682;8.890;2023-03-31T16:15:27;4.18;;;1.30;;
26223;SDS011;14820;48.682;8.890;2023-03-31T16:18:11;3.28;;;1.40;;
26223;SDS011;14820;48.682;8.890;2023-03-31T16:20:43;2.35;;;0.80;;
26223;SDS011;14820;48.682;8.890;2023-03-31T16:23:17;5.40;;;1.13;;
26223;SDS011;14820;48.682;8.890;2023-03-31T16:25:45;4.05;;;1.67;;
26223;SDS011;14820;48.682;8.890;2023-03-31T16:28:33;3.30;;;0.90;;
26223;SDS011;14820;48.682;8.890;2023-03-31T16:31:01;4.80;;;0.95;;
26223;SDS011;14820;48.682;8.890;2023-03-31T16:33:29;3.50;;;1.20;;
26223;SDS011;14820;48.682;8.890;2023-03-31T16:36:15;4.90;;;0.65;;
26223;SDS011;14820;48.682;8.890;2023-03-31T16:38:41;1.42;;;0.70;;
26223;SDS011;14820;48.682;8.890;2023-03-31T16:41:07;2.42;;;0.90;;
26223;SDS011;14820;48.682;8.890;2023-03-31T16:43:33;3.58;;;1.38;;
26223;SDS011;14820;48.682;8.890;2023-03-31T16:46:00;1.75;;;0.80;;
26223;SDS011;14820;48.682;8.890;2023-03-31T16:48:30;1.85;;;0.65;;
26223;SDS011;14820;48.682;8.890;2023-03-31T16:51:00;0.95;;;0.70;;
26223;SDS011;14820;48.682;8.890;2023-03-31T16:53:27;3.97;;;1.10;;
26223;SDS011;14820;48.682;8.890;2023-03-31T16:55:55;1.63;;;0.90;;
26223;SDS011;14820;48.682;8.890;2023-03-31T16:58:21;2.30;;;0.80;;
26223;SDS011;14820;48.682;8.890;2023-03-31T17:00:48;2.05;;;0.70;;
26223;SDS011;14820;48.682;8.890;2023-03-31T17:03:15;1.65;;;0.65;;
26223;SDS011;14820;48.682;8.890;2023-03-31T17:05:41;2.60;;;1.00;;
26223;SDS011;14820;48.682;8.890;2023-03-31T17:08:09;2.13;;;0.90;;
26223;SDS011;14820;48.682;8.890;2023-03-31T17:10:36;0.80;;;0.60;;
26223;SDS011;14820;48.682;8.890;2023-03-31T17:13:03;1.40;;;0.65;;
26223;SDS011;14820;48.682;8.890;2023-03-31T17:15:29;1.58;;;0.65;;
26223;SDS011;14820;48.682;8.890;2023-03-31T17:17:55;1.20;;;0.70;;
26223;SDS011;14820;48.682;8.890;2023-03-31T17:20:23;2.13;;;0.60;;
26223;SDS011;14820;48.682;8.890;2023-03-31T17:22:49;1.67;;;0.63;;
26223;SDS011;14820;48.682;8.890;2023-03-31T17:25:15;1.02;;;0.50;;
26223;SDS011;14820;48.682;8.890;2023-03-31T17:27:42;2.20;;;0.85;;
26223;SDS011;14820;48.682;8.890;2023-03-31T17:30:09;2.05;;;0.70;;
26223;SDS011;14820;48.682;8.890;2023-03-31T17:32:35;2.67;;;0.80;;
26223;SDS011;14820;48.682;8.890;2023-03-31T17:35:01;1.17;;;0.60;;
26223;SDS011;14820;48.682;8.890;2023-03-31T17:37:27;1.50;;;0.65;;
26223;SDS011;14820;48.682;8.890;2023-03-31T17:39:53;1.20;;;0.68;;
26223;SDS011;14820;48.682;8.890;2023-03-31T17:42:19;2.03;;;0.80;;
26223;SDS011;14820;48.682;8.890;2023-03-31T17:44:45;2.75;;;0.85;;
26223;SDS011;14820;48.682;8.890;2023-03-31T17:47:14;1.35;;;0.68;;
26223;SDS011;14820;48.682;8.890;2023-03-31T17:49:40;1.70;;;0.77;;
26223;SDS011;14820;48.682;8.890;2023-03-31T17:52:06;3.92;;;1.35;;
26223;SDS011;14820;48.682;8.890;2023-03-31T17:54:31;3.17;;;0.98;;
26223;SDS011;14820;48.682;8.890;2023-03-31T17:56:57;1.15;;;0.80;;
26223;SDS011;14820;48.682;8.890;2023-03-31T17:59:23;1.95;;;0.93;;
26223;SDS011;14820;48.682;8.890;2023-03-31T18:01:48;2.30;;;1.10;;
26223;SDS011;14820;48.682;8.890;2023-03-31T18:04:14;5.72;;;1.58;;